createdAt,value
2022-11-28T00:01:31.470Z,11.25
2022-11-28T00:03:59.239Z,10.07
2022-11-28T00:06:28.067Z,12.85
2022-11-28T00:08:56.624Z,8.20
2022-11-28T00:11:24.158Z,16.42
2022-11-28T00:13:51.920Z,10.02
2022-11-28T00:16:22.270Z,11.95
2022-11-28T00:18:51.462Z,14.57
2022-11-28T00:21:20.024Z,12.35
2022-11-28T00:23:49.084Z,12.25
2022-11-28T00:26:28.866Z,9.18
2022-11-28T00:28:57.709Z,11.35
2022-11-28T00:31:28.093Z,16.90
2022-11-28T00:33:55.971Z,10.10
2022-11-28T00:36:24.372Z,11.23
2022-11-28T00:38:52.795Z,10.38
2022-11-28T00:41:25.499Z,13.68
2022-11-28T00:43:53.841Z,11.50
2022-11-28T00:46:22.800Z,9.90
2022-11-28T00:48:51.075Z,15.45
2022-11-28T00:51:21.729Z,14.18
2022-11-28T00:53:50.854Z,13.30
2022-11-28T00:56:21.615Z,13.52
2022-11-28T00:58:49.922Z,13.60
2022-11-28T01:01:28.289Z,15.77
2022-11-28T01:03:58.152Z,10.88
2022-11-28T01:06:37.817Z,14.77
2022-11-28T01:09:11.557Z,13.45
2022-11-28T01:11:40.901Z,12.98
2022-11-28T01:14:09.490Z,10.60
2022-11-28T01:16:37.332Z,12.15
2022-11-28T01:19:05.702Z,14.95
2022-11-28T01:21:33.192Z,14.73
2022-11-28T01:24:00.644Z,13.02
2022-11-28T01:26:30.241Z,11.25
2022-11-28T01:28:58.368Z,12.85
2022-11-28T01:31:28.314Z,11.45
2022-11-28T01:33:56.586Z,11.68
2022-11-28T01:36:24.761Z,11.82
2022-11-28T01:38:53.125Z,12.75
2022-11-28T01:41:23.772Z,10.20
2022-11-28T01:44:00.448Z,11.27
2022-11-28T01:46:28.654Z,8.45
2022-11-28T01:49:00.568Z,9.73
2022-11-28T01:51:28.882Z,9.20
2022-11-28T01:53:56.925Z,7.65
2022-11-28T01:56:29.612Z,7.90
2022-11-28T01:59:03.561Z,7.07
2022-11-28T02:01:31.255Z,8.25
2022-11-28T02:04:00.198Z,10.02
2022-11-28T02:06:28.766Z,8.15
2022-11-28T02:08:57.154Z,6.22
2022-11-28T02:11:39.617Z,10.23
2022-11-28T02:14:30.844Z,8.57
2022-11-28T02:17:23.381Z,8.43
2022-11-28T02:19:50.785Z,8.20
2022-11-28T02:22:26.318Z,7.85
2022-11-28T02:25:09.216Z,8.18
2022-11-28T02:28:07.712Z,8.70
2022-11-28T02:30:47.246Z,7.30
2022-11-28T02:33:26.120Z,6.30
2022-11-28T02:36:25.891Z,6.88
2022-11-28T02:38:58.969Z,7.60
2022-11-28T02:41:47.617Z,7.50
2022-11-28T02:44:19.597Z,8.57
2022-11-28T02:46:53.441Z,6.72
2022-11-28T02:49:28.423Z,7.47
2022-11-28T02:52:05.719Z,7.45
2022-11-28T02:54:34.139Z,8.15
2022-11-28T02:57:02.983Z,10.02
2022-11-28T02:59:39.634Z,7.78
2022-11-28T03:02:15.091Z,11.85
2022-11-28T03:04:56.692Z,8.85
2022-11-28T03:07:49.121Z,9.57
2022-11-28T03:10:30.537Z,11.32
2022-11-28T03:13:16.885Z,10.13
2022-11-28T03:16:03.027Z,12.02
2022-11-28T03:18:41.554Z,12.73
2022-11-28T03:21:18.950Z,11.63
2022-11-28T03:23:53.739Z,11.40
2022-11-28T03:26:52.519Z,11.90
2022-11-28T03:29:24.541Z,13.35
2022-11-28T03:31:58.565Z,17.17
2022-11-28T03:34:33.313Z,13.73
2022-11-28T03:37:09.621Z,15.07
2022-11-28T03:39:43.365Z,15.18
2022-11-28T03:42:28.246Z,12.15
2022-11-28T03:45:01.627Z,14.10
2022-11-28T03:47:33.287Z,12.75
2022-11-28T03:50:07.593Z,16.95
2022-11-28T03:52:44.353Z,13.73
2022-11-28T03:55:18.329Z,16.25
2022-11-28T03:58:08.723Z,12.50
2022-11-28T04:00:43.109Z,16.50
2022-11-28T04:03:28.007Z,14.13
2022-11-28T04:06:05.553Z,15.48
2022-11-28T04:08:46.689Z,19.35
2022-11-28T04:11:19.748Z,19.60
2022-11-28T04:13:56.505Z,16.20
2022-11-28T04:16:28.854Z,17.45
2022-11-28T04:21:42.346Z,19.23
2022-11-28T04:24:21.929Z,19.48
2022-11-28T04:26:55.637Z,15.02
2022-11-28T04:29:25.511Z,19.95
2022-11-28T04:31:58.723Z,18.08
2022-11-28T04:34:29.504Z,17.48
2022-11-28T04:37:04.346Z,16.58
2022-11-28T04:39:37.700Z,17.30
2022-11-28T04:42:31.458Z,16.25
2022-11-28T04:45:10.605Z,17.92
2022-11-28T04:47:38.272Z,19.25
2022-11-28T04:50:06.338Z,20.98
2022-11-28T04:52:59.730Z,17.08
2022-11-28T04:55:34.596Z,21.35
2022-11-28T04:58:23.754Z,16.67
2022-11-28T05:00:54.622Z,18.33
2022-11-28T05:03:23.225Z,17.20
2022-11-28T05:05:52.524Z,13.52
2022-11-28T05:08:20.248Z,16.10
2022-11-28T05:10:48.308Z,20.48
2022-11-28T05:13:16.461Z,15.55
2022-11-28T05:15:43.917Z,14.80
2022-11-28T05:18:11.632Z,16.55
2022-11-28T05:20:40.193Z,15.77
2022-11-28T05:23:08.026Z,16.50
2022-11-28T05:25:35.561Z,18.52
2022-11-28T05:28:03.070Z,14.50
2022-11-28T05:30:31.642Z,20.48
2022-11-28T05:32:59.945Z,19.85
2022-11-28T05:35:27.581Z,19.20
2022-11-28T05:37:55.086Z,20.63
2022-11-28T05:40:22.567Z,24.58
2022-11-28T05:42:50.082Z,17.10
2022-11-28T05:45:30.839Z,17.98
2022-11-28T05:47:58.394Z,16.92
2022-11-28T05:50:25.861Z,20.95
2022-11-28T05:52:53.388Z,19.38
2022-11-28T05:55:20.853Z,16.77
2022-11-28T05:57:48.375Z,19.67
2022-11-28T06:00:16.195Z,23.08
2022-11-28T06:02:43.778Z,22.30
2022-11-28T06:05:40.462Z,18.65
2022-11-28T06:07:59.101Z,18.67
2022-11-28T06:10:26.756Z,17.98
2022-11-28T06:12:54.274Z,18.80
2022-11-28T06:15:21.765Z,19.38
2022-11-28T06:17:49.253Z,18.38
2022-11-28T06:20:16.961Z,22.92
2022-11-28T06:22:44.422Z,21.15
2022-11-28T06:25:11.901Z,18.95
2022-11-28T06:27:39.475Z,20.73
2022-11-28T06:30:08.222Z,20.52
2022-11-28T06:32:35.814Z,19.83
2022-11-28T06:35:03.338Z,22.80
2022-11-28T06:37:30.817Z,22.48
2022-11-28T06:39:59.259Z,25.15
2022-11-28T06:42:26.829Z,26.02
2022-11-28T06:44:54.329Z,25.92
2022-11-28T06:47:22.160Z,25.02
2022-11-28T06:49:50.333Z,24.60
2022-11-28T06:52:17.848Z,27.35
2022-11-28T06:54:45.638Z,26.73
2022-11-28T06:57:14.382Z,29.02
2022-11-28T06:59:42.200Z,29.13
2022-11-28T07:02:11.992Z,29.02
2022-11-28T07:04:39.619Z,29.65
2022-11-28T07:07:07.176Z,34.08
2022-11-28T07:09:34.689Z,31.70
2022-11-28T07:12:02.281Z,31.73
2022-11-28T07:14:30.060Z,34.75
2022-11-28T07:16:57.631Z,28.83
2022-11-28T07:19:25.199Z,30.63
2022-11-28T07:21:52.728Z,36.45
2022-11-28T07:24:20.359Z,33.65
2022-11-28T07:26:48.086Z,35.60
2022-11-28T07:29:16.893Z,35.10
2022-11-28T07:31:44.736Z,36.47
2022-11-28T07:34:12.773Z,33.17
2022-11-28T07:36:40.263Z,31.88
2022-11-28T07:39:17.518Z,36.47
2022-11-28T07:41:45.324Z,33.45
2022-11-28T07:44:13.081Z,33.38
2022-11-28T07:46:40.741Z,38.75
2022-11-28T07:49:08.275Z,34.03
2022-11-28T07:51:36.652Z,41.58
2022-11-28T07:54:06.000Z,38.50
2022-11-28T07:57:04.708Z,39.08
2022-11-28T07:59:24.290Z,36.88
2022-11-28T08:01:53.732Z,36.42
2022-11-28T08:04:21.774Z,42.50
2022-11-28T08:06:49.374Z,37.75
2022-11-28T08:09:16.877Z,39.58
2022-11-28T08:11:44.434Z,39.90
2022-11-28T08:14:14.250Z,42.13
2022-11-28T08:16:44.969Z,36.03
2022-11-28T08:19:12.827Z,45.20
2022-11-28T08:21:40.364Z,38.53
2022-11-28T08:24:08.927Z,43.83
2022-11-28T08:26:36.757Z,44.80
2022-11-28T08:29:04.723Z,41.05
2022-11-28T08:31:35.525Z,45.42
2022-11-28T08:34:06.983Z,41.35
2022-11-28T08:36:34.630Z,42.37
2022-11-28T08:39:17.021Z,42.03
2022-11-28T08:41:50.795Z,43.55
2022-11-28T08:44:18.352Z,49.05
2022-11-28T08:46:45.950Z,44.47
2022-11-28T08:49:13.476Z,46.70
2022-11-28T08:51:41.299Z,51.05
2022-11-28T08:54:08.884Z,53.67
2022-11-28T08:56:36.679Z,54.65
2022-11-28T08:59:04.714Z,50.47
2022-11-28T09:01:32.411Z,51.67
2022-11-28T09:04:00.341Z,58.25
2022-11-28T09:06:27.916Z,51.13
2022-11-28T09:08:55.462Z,56.10
2022-11-28T09:11:24.612Z,56.33
2022-11-28T09:13:52.447Z,49.28
2022-11-28T09:16:20.211Z,56.42
2022-11-28T09:18:48.064Z,60.58
2022-11-28T09:21:16.902Z,63.28
2022-11-28T09:23:45.702Z,50.83
2022-11-28T09:26:18.947Z,52.78
2022-11-28T09:28:47.436Z,57.20
2022-11-28T09:31:16.901Z,58.17
2022-11-28T09:33:45.755Z,54.05
2022-11-28T09:36:15.866Z,52.53
2022-11-28T09:38:43.625Z,56.60
2022-11-28T09:41:29.350Z,64.32
2022-11-28T09:44:07.984Z,52.80
2022-11-28T09:46:38.318Z,64.75
2022-11-28T09:49:19.018Z,56.40
2022-11-28T09:51:51.903Z,64.55
2022-11-28T09:54:48.747Z,59.30
2022-11-28T09:57:27.092Z,57.97
2022-11-28T09:59:54.601Z,63.60
2022-11-28T10:02:45.159Z,61.22
2022-11-28T10:05:25.668Z,56.72
2022-11-28T10:08:01.713Z,56.60
2022-11-28T10:10:35.448Z,59.65
2022-11-28T10:13:02.930Z,61.25
2022-11-28T10:15:43.925Z,59.42
2022-11-28T10:18:21.169Z,61.03
2022-11-28T10:20:53.092Z,60.55
2022-11-28T10:23:55.851Z,67.88
2022-11-28T10:26:37.192Z,58.45
2022-11-28T10:29:31.996Z,61.17
2022-11-28T10:32:02.750Z,62.17
2022-11-28T10:34:35.674Z,58.95
2022-11-28T10:37:21.239Z,58.15
2022-11-28T10:39:49.640Z,55.30
2022-11-28T10:42:51.011Z,58.63
2022-11-28T10:45:44.721Z,54.95
2022-11-28T10:48:48.942Z,50.67
2022-11-28T10:51:30.686Z,55.15
2022-11-28T10:54:31.724Z,55.33
2022-11-28T10:56:59.277Z,57.80
2022-11-28T11:00:05.802Z,50.10
2022-11-28T11:02:47.310Z,53.25
2022-11-28T11:05:17.820Z,49.35
2022-11-28T11:08:22.775Z,47.15
2022-11-28T11:11:01.141Z,43.03
2022-11-28T11:13:32.361Z,49.67
2022-11-28T11:16:03.918Z,51.25
2022-11-28T11:18:38.388Z,48.45
2022-11-28T11:21:24.733Z,45.80
2022-11-28T11:24:19.257Z,43.90
2022-11-28T11:26:50.110Z,36.28
2022-11-28T11:29:29.609Z,39.30
2022-11-28T11:32:03.461Z,39.13
2022-11-28T11:34:44.730Z,42.33
2022-11-28T11:37:39.217Z,34.25
2022-11-28T11:40:22.728Z,38.72
2022-11-28T11:42:56.511Z,37.95
2022-11-28T11:45:34.408Z,34.10
2022-11-28T11:48:04.762Z,33.95
2022-11-28T11:50:33.560Z,33.67
2022-11-28T11:53:02.185Z,35.75
2022-11-28T11:55:31.170Z,30.50
2022-11-28T11:58:05.403Z,40.47
2022-11-28T12:00:40.111Z,35.85
2022-11-28T12:03:25.954Z,43.38
2022-11-28T12:06:14.915Z,39.35
2022-11-28T12:08:50.397Z,44.15
2022-11-28T12:11:45.463Z,35.47
2022-11-28T12:14:33.630Z,44.67
2022-11-28T12:17:40.566Z,31.00
2022-11-28T12:20:31.542Z,33.90
2022-11-28T12:23:10.836Z,37.08
2022-11-28T12:25:56.607Z,36.50
2022-11-28T12:29:00.940Z,36.80
2022-11-28T12:31:50.311Z,39.58
2022-11-28T12:34:53.469Z,36.67
2022-11-28T12:38:02.702Z,31.50
2022-11-28T12:40:46.659Z,33.28
2022-11-28T12:43:29.137Z,34.47
2022-11-28T12:49:33.283Z,34.65
2022-11-28T12:52:10.248Z,34.88
2022-11-28T12:54:54.622Z,35.28
2022-11-28T12:57:49.943Z,34.03
2022-11-28T13:00:22.421Z,32.65
2022-11-28T13:03:08.620Z,37.80
2022-11-28T13:06:03.050Z,33.58
2022-11-28T13:09:06.487Z,39.35
2022-11-28T13:11:58.226Z,36.92
2022-11-28T13:14:37.832Z,30.70
2022-11-28T13:17:23.413Z,34.92
2022-11-28T13:19:59.038Z,36.97
2022-11-28T13:22:36.721Z,43.78
2022-11-28T13:25:24.361Z,41.13
2022-11-28T13:28:22.983Z,42.08
2022-11-28T13:31:05.480Z,46.53
2022-11-28T13:36:01.868Z,46.38
2022-11-28T13:39:12.283Z,43.28
2022-11-28T13:44:59.415Z,43.38
2022-11-28T13:47:35.651Z,54.97
2022-11-28T13:50:33.567Z,50.25
2022-11-28T13:53:01.261Z,47.35
2022-11-28T13:55:48.374Z,51.92
2022-11-28T13:58:25.653Z,52.55
2022-11-28T14:01:23.876Z,43.85
2022-11-28T14:04:04.385Z,50.17
2022-11-28T14:06:44.587Z,45.08
2022-11-28T14:09:17.906Z,49.50
2022-11-28T14:12:19.175Z,51.85
2022-11-28T14:14:56.461Z,44.80
2022-11-28T14:17:46.847Z,45.70
2022-11-28T14:20:36.228Z,45.10
2022-11-28T14:23:13.409Z,41.97
2022-11-28T14:25:44.504Z,42.47
2022-11-28T14:28:23.176Z,46.35
2022-11-28T14:30:52.393Z,52.53
2022-11-28T14:33:25.303Z,47.90
2022-11-28T14:35:55.713Z,45.92
2022-11-28T14:38:41.863Z,46.45
2022-11-28T14:41:12.817Z,46.20
2022-11-28T14:43:40.247Z,44.30
2022-11-28T14:46:22.096Z,47.25
2022-11-28T14:48:58.981Z,50.40
2022-11-28T14:51:45.391Z,49.00
2022-11-28T14:54:36.389Z,48.28
2022-11-28T14:57:14.073Z,48.88
2022-11-28T14:59:41.932Z,40.58
2022-11-28T15:02:12.373Z,51.00
2022-11-28T15:04:54.532Z,55.97
2022-11-28T15:07:27.510Z,51.60
2022-11-28T15:10:09.840Z,55.47
2022-11-28T15:12:59.356Z,51.42
2022-11-28T15:15:27.040Z,46.28
2022-11-28T15:17:56.044Z,52.13
2022-11-28T15:20:32.806Z,48.60
2022-11-28T15:23:00.346Z,47.63
2022-11-28T15:25:35.340Z,57.03
2022-11-28T15:28:21.398Z,55.42
2022-11-28T15:30:52.409Z,48.40
2022-11-28T15:33:21.636Z,57.10
2022-11-28T15:36:10.632Z,53.40
2022-11-28T15:38:39.911Z,48.47
2022-11-28T15:41:07.504Z,50.03
2022-11-28T15:43:38.585Z,57.35
2022-11-28T15:46:08.089Z,45.60
2022-11-28T15:48:40.219Z,52.92
2022-11-28T15:53:42.181Z,54.50
2022-11-28T15:56:12.230Z,46.50
2022-11-28T15:58:40.873Z,70.00
2022-11-28T16:01:18.963Z,54.13
2022-11-28T16:04:08.695Z,46.10
2022-11-28T16:06:39.825Z,55.25
2022-11-28T16:09:20.958Z,49.28
2022-11-28T16:11:53.419Z,56.63
2022-11-28T16:14:33.967Z,53.92
2022-11-28T16:17:15.781Z,58.30
2022-11-28T16:19:45.472Z,56.92
2022-11-28T16:22:19.898Z,57.95
2022-11-28T16:24:50.333Z,56.47
2022-11-28T16:27:47.438Z,70.00
2022-11-28T16:30:24.265Z,51.78
2022-11-28T16:32:53.349Z,53.53
2022-11-28T16:35:46.692Z,50.03
2022-11-28T16:38:25.743Z,57.08
2022-11-28T16:41:01.152Z,54.35
2022-11-28T16:43:40.405Z,67.82
2022-11-28T16:46:17.966Z,51.92
2022-11-28T16:48:50.429Z,56.90
2022-11-28T16:51:28.704Z,56.97
2022-11-28T16:53:59.574Z,57.08
2022-11-28T16:56:32.989Z,62.30
2022-11-28T16:59:12.159Z,58.45
2022-11-28T17:01:40.723Z,50.90
2022-11-28T17:04:08.356Z,59.15
2022-11-28T17:06:37.796Z,72.55
2022-11-28T17:09:08.141Z,52.58
2022-11-28T17:15:28.011Z,57.30
2022-11-28T17:29:15.627Z,61.22
2022-11-28T17:31:46.903Z,57.33
2022-11-28T17:34:52.036Z,60.63
2022-11-28T17:37:56.667Z,57.33
2022-11-28T17:40:36.694Z,56.50
2022-11-28T17:43:05.397Z,59.88
2022-11-28T17:45:36.273Z,54.35
2022-11-28T17:48:03.843Z,55.45
2022-11-28T17:50:31.470Z,51.45
2022-11-28T17:52:58.966Z,58.33
2022-11-28T17:55:26.457Z,52.38
2022-11-28T17:57:54.188Z,48.92
2022-11-28T18:00:21.872Z,52.90
2022-11-28T18:02:49.367Z,52.45
2022-11-28T18:05:16.950Z,56.90
2022-11-28T18:07:44.681Z,59.80
2022-11-28T18:10:12.882Z,52.20
2022-11-28T18:12:40.413Z,50.83
2022-11-28T18:15:10.136Z,55.35
2022-11-28T18:17:38.064Z,56.58
2022-11-28T18:20:06.335Z,51.10
2022-11-28T18:22:33.792Z,59.45
2022-11-28T18:25:01.288Z,58.97
2022-11-28T18:27:28.780Z,51.08
2022-11-28T18:29:56.384Z,50.88
2022-11-28T18:32:23.899Z,50.60
2022-11-28T18:34:51.319Z,55.22
2022-11-28T18:37:19.033Z,60.47
2022-11-28T18:39:46.739Z,50.67
2022-11-28T18:42:14.720Z,50.70
2022-11-28T18:52:20.427Z,52.95
2022-11-28T18:58:43.500Z,47.65
2022-11-28T19:01:13.384Z,45.47
2022-11-28T19:03:41.804Z,46.92
2022-11-28T19:06:11.872Z,49.45
2022-11-28T19:08:40.406Z,50.67
2022-11-28T19:11:14.459Z,51.63
2022-11-28T19:13:47.069Z,50.95
2022-11-28T19:16:40.582Z,44.47
2022-11-28T19:19:08.839Z,52.35
2022-11-28T19:21:36.789Z,58.00
2022-11-28T19:24:05.386Z,71.07
2022-11-28T19:26:34.279Z,75.05
2022-11-28T19:29:02.826Z,60.90
2022-11-28T19:31:33.383Z,59.28
2022-11-28T19:34:06.214Z,79.68
2022-11-28T19:36:40.774Z,75.70
2022-11-28T19:39:16.838Z,63.63
2022-11-28T19:41:44.994Z,64.57
2022-11-28T19:44:13.182Z,75.97
2022-11-28T19:46:41.293Z,69.18
2022-11-28T19:49:14.891Z,80.30
2022-11-28T19:51:42.367Z,89.72
2022-11-28T19:54:09.827Z,75.60
2022-11-28T19:56:37.438Z,74.90
2022-11-28T19:59:04.994Z,91.45
2022-11-28T20:01:32.619Z,76.22
2022-11-28T20:04:00.318Z,68.75
2022-11-28T20:06:30.420Z,75.47
2022-11-28T20:09:01.138Z,72.35
2022-11-28T20:11:32.208Z,77.05
2022-11-28T20:14:06.298Z,73.63
2022-11-28T20:16:36.118Z,75.07
2022-11-28T20:19:04.879Z,79.00
2022-11-28T20:21:32.897Z,73.28
2022-11-28T20:24:04.587Z,78.63
2022-11-28T20:26:36.416Z,88.20
2022-11-28T20:29:04.311Z,74.43
2022-11-28T20:31:35.737Z,79.18
2022-11-28T20:34:04.498Z,77.63
2022-11-28T20:36:33.318Z,77.40
2022-11-28T20:39:01.141Z,82.60
2022-11-28T20:41:30.472Z,89.90
2022-11-28T20:44:00.406Z,87.05
2022-11-28T20:46:31.240Z,85.03
2022-11-28T20:49:04.132Z,82.18
2022-11-28T20:51:33.156Z,94.88
2022-11-28T20:54:00.948Z,83.82
2022-11-28T20:56:31.758Z,95.00
2022-11-28T20:59:00.616Z,91.18
2022-11-28T21:01:33.205Z,99.53
2022-11-28T21:04:01.982Z,89.00
2022-11-28T21:06:29.761Z,105.57
2022-11-28T21:08:58.400Z,97.75
2022-11-28T21:14:15.619Z,99.30
2022-11-28T21:16:44.290Z,100.07
2022-11-28T21:19:12.764Z,98.53
2022-11-28T21:21:42.987Z,86.75
2022-11-28T21:24:14.132Z,96.25
2022-11-28T21:26:48.157Z,88.43
2022-11-28T21:29:20.721Z,101.20
2022-11-28T21:31:49.023Z,82.93
2022-11-28T21:34:17.808Z,95.35
2022-11-28T21:36:46.101Z,85.70
2022-11-28T21:39:22.216Z,88.20
2022-11-28T21:41:51.231Z,97.97
2022-11-28T21:44:19.188Z,87.13
2022-11-28T21:46:47.512Z,90.82
2022-11-28T21:49:15.536Z,79.22
2022-11-28T21:51:43.606Z,85.57
2022-11-28T21:54:14.264Z,94.20
2022-11-28T21:56:41.894Z,91.72
2022-11-28T21:59:09.609Z,90.55
2022-11-28T22:01:37.191Z,91.13
2022-11-28T22:04:05.254Z,87.30
2022-11-28T22:06:33.568Z,94.57
2022-11-28T22:09:08.660Z,82.65
2022-11-28T22:11:36.388Z,94.18
2022-11-28T22:14:03.903Z,81.53
2022-11-28T22:16:31.479Z,85.05
2022-11-28T22:19:01.267Z,74.72
2022-11-28T22:24:17.606Z,85.15
2022-11-28T22:26:45.253Z,75.70
2022-11-28T22:29:12.755Z,75.18
2022-11-28T22:31:40.381Z,80.75
2022-11-28T22:34:09.647Z,69.63
2022-11-28T22:36:37.140Z,78.63
2022-11-28T22:39:04.677Z,76.45
2022-11-28T22:41:32.237Z,73.20
2022-11-28T22:44:02.109Z,77.35
2022-11-28T22:46:30.349Z,78.88
2022-11-28T22:48:59.456Z,74.47
2022-11-28T22:51:27.986Z,73.38
2022-11-28T22:53:56.854Z,66.47
2022-11-28T22:56:24.483Z,72.65
2022-11-28T22:58:52.007Z,78.05
2022-11-28T23:01:22.711Z,73.03
2022-11-28T23:03:50.721Z,74.60
2022-11-28T23:06:21.260Z,78.50
2022-11-28T23:08:49.428Z,70.22
2022-11-28T23:11:22.804Z,80.03
2022-11-28T23:13:51.757Z,74.60
2022-11-28T23:16:34.119Z,76.40
2022-11-28T23:19:04.840Z,65.18
2022-11-28T23:21:35.423Z,67.78
2022-11-28T23:24:02.986Z,74.07
2022-11-28T23:26:32.455Z,70.40
2022-11-28T23:29:02.441Z,75.47
2022-11-28T23:31:31.812Z,70.53
2022-11-28T23:33:59.875Z,76.43
2022-11-28T23:36:30.438Z,60.80
2022-11-28T23:39:01.118Z,64.32
2022-11-28T23:41:30.039Z,76.38
2022-11-28T23:43:58.345Z,87.63
2022-11-28T23:46:26.793Z,69.72
2022-11-28T23:48:54.627Z,99.60
2022-11-28T23:51:24.630Z,86.05
2022-11-28T23:53:52.710Z,73.95
2022-11-28T23:56:22.794Z,90.30
2022-11-28T23:58:50.932Z,86.72
